QXE2346 KPDX-CYVR
Flight info
| Callsign | QXE2346 |
|---|---|
| Flight time | 0h 42m |
| Altitude | 32000 |
| Route | DCT BTG J1 SEA DCT PAE GRIZZ7 |
| Aircraft | E75L/M-SDE3GILORVW/S |
Departure
| Time | 2026-05-07 17:52 |
|---|---|
| Airport | Portland International Airport (KPDX) |
Arrival
| Time | 2026-05-07 18:35 |
|---|---|
| Airport | Vancouver International Airport (CYVR) |
| Time | Latitude | Longitude | Altitude | Speed | Heading |
|---|---|---|---|---|---|
| 2026-05-07 17:31 | 45.59045 | -122.59892 | 31 ft | 0 kts | 209° |
| 2026-05-07 17:41 | 45.59054 | -122.59886 | 31 ft | 2 kts | 208° |
| 2026-05-07 17:41 | 45.59068 | -122.59874 | 30 ft | 2 kts | 209° |
| 2026-05-07 17:41 | 45.59083 | -122.59863 | 30 ft | 2 kts | 209° |
| 2026-05-07 17:42 | 45.59096 | -122.59850 | 29 ft | 2 kts | 231° |
| 2026-05-07 17:42 | 45.59097 | -122.59828 | 29 ft | 2 kts | 291° |
| 2026-05-07 17:42 | 45.59095 | -122.59822 | 29 ft | 0 kts | 295° |
| 2026-05-07 17:49 | 45.59096 | -122.59822 | 29 ft | 1 kts | 295° |
| 2026-05-07 17:49 | 45.59114 | -122.59874 | 29 ft | 12 kts | 299° |
| 2026-05-07 17:49 | 45.59132 | -122.60024 | 29 ft | 16 kts | 241° |
| 2026-05-07 17:49 | 45.59025 | -122.60144 | 28 ft | 21 kts | 209° |
| 2026-05-07 17:50 | 45.58907 | -122.60210 | 31 ft | 16 kts | 163° |
| 2026-05-07 17:50 | 45.58844 | -122.60104 | 33 ft | 15 kts | 119° |
| 2026-05-07 17:50 | 45.58786 | -122.59949 | 33 ft | 22 kts | 117° |
| 2026-05-07 17:50 | 45.58709 | -122.59753 | 34 ft | 24 kts | 118° |
| 2026-05-07 17:51 | 45.58623 | -122.59530 | 33 ft | 27 kts | 118° |
| 2026-05-07 17:51 | 45.58535 | -122.59297 | 29 ft | 21 kts | 119° |
| 2026-05-07 17:51 | 45.58469 | -122.59179 | 29 ft | 12 kts | 163° |
| 2026-05-07 17:51 | 45.58396 | -122.59224 | 29 ft | 12 kts | 239° |
| 2026-05-07 17:52 | 45.58408 | -122.59309 | 30 ft | 13 kts | 300° |
| 2026-05-07 17:52 | 45.58596 | -122.59799 | 35 ft | 100 kts | 300° |
| 2026-05-07 17:52 | 45.59055 | -122.60964 | 197 ft | 161 kts | 300° |
| 2026-05-07 17:52 | 45.59695 | -122.62498 | 884 ft | 203 kts | 308° |
| 2026-05-07 17:53 | 45.61071 | -122.63854 | 1054 ft | 281 kts | 342° |
| 2026-05-07 17:53 | 45.63070 | -122.63959 | 2590 ft | 298 kts | 9° |
| 2026-05-07 17:53 | 45.65157 | -122.63267 | 4237 ft | 316 kts | 13° |
| 2026-05-07 17:53 | 45.67344 | -122.62466 | 5277 ft | 314 kts | 13° |
| 2026-05-07 17:54 | 45.69315 | -122.61746 | 6631 ft | 290 kts | 12° |
| 2026-05-07 17:54 | 45.71341 | -122.61025 | 7814 ft | 314 kts | 11° |
| 2026-05-07 17:54 | 45.73437 | -122.60337 | 8766 ft | 287 kts | 10° |
| 2026-05-07 17:54 | 45.75273 | -122.59750 | 9728 ft | 264 kts | 9° |
| 2026-05-07 17:55 | 45.77023 | -122.59206 | 10654 ft | 258 kts | 9° |
| 2026-05-07 17:55 | 45.78759 | -122.58674 | 11587 ft | 252 kts | 9° |
| 2026-05-07 17:55 | 45.80460 | -122.58253 | 12543 ft | 244 kts | 4° |
| 2026-05-07 17:55 | 45.82121 | -122.57956 | 13519 ft | 237 kts | 3° |
| 2026-05-07 17:56 | 45.83733 | -122.57691 | 14464 ft | 229 kts | 2° |
| 2026-05-07 17:56 | 45.85290 | -122.57442 | 15383 ft | 220 kts | 2° |
| 2026-05-07 17:56 | 45.86776 | -122.57202 | 16286 ft | 212 kts | 2° |
| 2026-05-07 17:56 | 45.88274 | -122.56965 | 16801 ft | 221 kts | 2° |
| 2026-05-07 17:57 | 45.89836 | -122.56714 | 17318 ft | 230 kts | 3° |
| 2026-05-07 17:57 | 45.90926 | -122.56536 | 17680 ft | 236 kts | 3° |
| 2026-05-07 17:57 | 45.93139 | -122.56173 | 18415 ft | 247 kts | 3° |
| 2026-05-07 17:57 | 45.94875 | -122.55888 | 18905 ft | 255 kts | 3° |
| 2026-05-07 17:58 | 45.96672 | -122.55594 | 19406 ft | 264 kts | 3° |
| 2026-05-07 17:58 | 45.98524 | -122.55292 | 19917 ft | 273 kts | 3° |
| 2026-05-07 17:58 | 46.00445 | -122.54979 | 20436 ft | 283 kts | 3° |
| 2026-05-07 17:58 | 46.02436 | -122.54654 | 20942 ft | 292 kts | 3° |
| 2026-05-07 17:59 | 46.04488 | -122.54318 | 21475 ft | 302 kts | 3° |
| 2026-05-07 17:59 | 46.06615 | -122.53969 | 22004 ft | 311 kts | 3° |
| 2026-05-07 17:59 | 46.08799 | -122.53613 | 22529 ft | 320 kts | 3° |
| 2026-05-07 17:59 | 46.11033 | -122.53246 | 23054 ft | 327 kts | 3° |
| 2026-05-07 18:00 | 46.12543 | -122.52997 | 23411 ft | 332 kts | 3° |
| 2026-05-07 18:00 | 46.14866 | -122.52615 | 23938 ft | 339 kts | 3° |
| 2026-05-07 18:00 | 46.18015 | -122.52097 | 24545 ft | 347 kts | 3° |
| 2026-05-07 18:00 | 46.20436 | -122.51699 | 25015 ft | 353 kts | 3° |
| 2026-05-07 18:01 | 46.22893 | -122.51294 | 25496 ft | 359 kts | 3° |
| 2026-05-07 18:01 | 46.25381 | -122.50883 | 25976 ft | 360 kts | 2° |
| 2026-05-07 18:01 | 46.27063 | -122.50606 | 26297 ft | 361 kts | 2° |
| 2026-05-07 18:01 | 46.30373 | -122.50060 | 27026 ft | 362 kts | 2° |
| 2026-05-07 18:02 | 46.34569 | -122.49366 | 28095 ft | 362 kts | 2° |
| 2026-05-07 18:02 | 46.37064 | -122.48953 | 28749 ft | 361 kts | 1° |
| 2026-05-07 18:02 | 46.39553 | -122.48540 | 29414 ft | 359 kts | 1° |
| 2026-05-07 18:03 | 46.41992 | -122.48135 | 30079 ft | 356 kts | 1° |
| 2026-05-07 18:03 | 46.44449 | -122.47729 | 30674 ft | 354 kts | 1° |
| 2026-05-07 18:03 | 46.46913 | -122.47320 | 31274 ft | 351 kts | 1° |
| 2026-05-07 18:03 | 46.49288 | -122.46924 | 31859 ft | 347 kts | 0° |
| 2026-05-07 18:04 | 46.51761 | -122.46517 | 32056 ft | 357 kts | 0° |
| 2026-05-07 18:04 | 46.54235 | -122.46106 | 32146 ft | 368 kts | 1° |
| 2026-05-07 18:04 | 46.56796 | -122.45675 | 32196 ft | 372 kts | 1° |
| 2026-05-07 18:05 | 46.61926 | -122.44815 | 32183 ft | 370 kts | 1° |
| 2026-05-07 18:05 | 46.67037 | -122.43961 | 32195 ft | 369 kts | 1° |
| 2026-05-07 18:06 | 46.72147 | -122.43104 | 32187 ft | 369 kts | 1° |
| 2026-05-07 18:06 | 46.77259 | -122.42246 | 32193 ft | 369 kts | 1° |
| 2026-05-07 18:07 | 46.82362 | -122.41387 | 32184 ft | 369 kts | 1° |
| 2026-05-07 18:07 | 46.87465 | -122.40527 | 32183 ft | 369 kts | 1° |
| 2026-05-07 18:08 | 46.92567 | -122.39665 | 32201 ft | 369 kts | 1° |
| 2026-05-07 18:08 | 46.97006 | -122.38913 | 32197 ft | 369 kts | 1° |
| 2026-05-07 18:09 | 47.02104 | -122.38049 | 32207 ft | 369 kts | 0° |
| 2026-05-07 18:09 | 47.07205 | -122.37182 | 32197 ft | 369 kts | 0° |
| 2026-05-07 18:10 | 47.12296 | -122.36316 | 32209 ft | 369 kts | 0° |
| 2026-05-07 18:10 | 47.17393 | -122.35447 | 32203 ft | 368 kts | 0° |
| 2026-05-07 18:11 | 47.22493 | -122.34576 | 32194 ft | 369 kts | 0° |
| 2026-05-07 18:11 | 47.27482 | -122.33722 | 32208 ft | 368 kts | 0° |
| 2026-05-07 18:12 | 47.32547 | -122.32852 | 32202 ft | 368 kts | 0° |
| 2026-05-07 18:12 | 47.37636 | -122.31977 | 32205 ft | 368 kts | 0° |
| 2026-05-07 18:13 | 47.42733 | -122.31081 | 32207 ft | 367 kts | 359° |
| 2026-05-07 18:13 | 47.47815 | -122.30676 | 32199 ft | 366 kts | 356° |
| 2026-05-07 18:14 | 47.52909 | -122.30346 | 32204 ft | 366 kts | 356° |
| 2026-05-07 18:14 | 47.58094 | -122.30015 | 32222 ft | 385 kts | 356° |
| 2026-05-07 18:14 | 47.60817 | -122.29835 | 32232 ft | 397 kts | 357° |
| 2026-05-07 18:15 | 47.63614 | -122.29651 | 32243 ft | 408 kts | 357° |
| 2026-05-07 18:15 | 47.66489 | -122.29461 | 32246 ft | 419 kts | 357° |
| 2026-05-07 18:15 | 47.69442 | -122.29267 | 32241 ft | 429 kts | 357° |
| 2026-05-07 18:16 | 47.75533 | -122.28866 | 32229 ft | 447 kts | 357° |
| 2026-05-07 18:16 | 47.81782 | -122.28452 | 32206 ft | 448 kts | 357° |
| 2026-05-07 18:17 | 47.88011 | -122.28048 | 32202 ft | 447 kts | 356° |
| 2026-05-07 18:17 | 47.94016 | -122.29323 | 32206 ft | 435 kts | 338° |
| 2026-05-07 18:18 | 47.99505 | -122.32993 | 32202 ft | 432 kts | 332° |
| 2026-05-07 18:18 | 48.04958 | -122.36777 | 32192 ft | 432 kts | 331° |
| 2026-05-07 18:19 | 48.10407 | -122.40567 | 32188 ft | 432 kts | 331° |
| 2026-05-07 18:19 | 48.15867 | -122.44375 | 32200 ft | 432 kts | 331° |
| 2026-05-07 18:20 | 48.21282 | -122.48161 | 32205 ft | 432 kts | 331° |
| 2026-05-07 18:20 | 48.26732 | -122.51981 | 32216 ft | 432 kts | 331° |
| 2026-05-07 18:20 | 48.29422 | -122.53866 | 32165 ft | 420 kts | 331° |
| 2026-05-07 18:21 | 48.32055 | -122.55720 | 31518 ft | 416 kts | 331° |
| 2026-05-07 18:21 | 48.34667 | -122.57560 | 30899 ft | 415 kts | 331° |
| 2026-05-07 18:21 | 48.37388 | -122.59137 | 30286 ft | 424 kts | 340° |
| 2026-05-07 18:21 | 48.40296 | -122.60011 | 29458 ft | 425 kts | 348° |
| 2026-05-07 18:22 | 48.43221 | -122.60495 | 28659 ft | 421 kts | 351° |
| 2026-05-07 18:22 | 48.45145 | -122.60754 | 28140 ft | 418 kts | 351° |
| 2026-05-07 18:22 | 48.49008 | -122.61243 | 27099 ft | 413 kts | 350° |
| 2026-05-07 18:22 | 48.51830 | -122.61867 | 26366 ft | 409 kts | 347° |
| 2026-05-07 18:23 | 48.54598 | -122.62551 | 25654 ft | 407 kts | 347° |
| 2026-05-07 18:23 | 48.57385 | -122.63271 | 24952 ft | 405 kts | 347° |
| 2026-05-07 18:23 | 48.60148 | -122.63988 | 24260 ft | 401 kts | 347° |
| 2026-05-07 18:23 | 48.62886 | -122.64701 | 23554 ft | 397 kts | 348° |
| 2026-05-07 18:24 | 48.65593 | -122.65406 | 22766 ft | 393 kts | 348° |
| 2026-05-07 18:24 | 48.68273 | -122.66104 | 21950 ft | 389 kts | 348° |
| 2026-05-07 18:24 | 48.70950 | -122.66803 | 20956 ft | 390 kts | 348° |
| 2026-05-07 18:24 | 48.73624 | -122.67501 | 19999 ft | 391 kts | 348° |
| 2026-05-07 18:25 | 48.76291 | -122.68196 | 19210 ft | 386 kts | 349° |
| 2026-05-07 18:25 | 48.78931 | -122.68887 | 18398 ft | 383 kts | 349° |
| 2026-05-07 18:25 | 48.81553 | -122.69571 | 17493 ft | 380 kts | 349° |
| 2026-05-07 18:25 | 48.84148 | -122.70251 | 16564 ft | 378 kts | 349° |
| 2026-05-07 18:26 | 48.86744 | -122.70932 | 15593 ft | 378 kts | 349° |
| 2026-05-07 18:26 | 48.89336 | -122.71613 | 14650 ft | 377 kts | 349° |
| 2026-05-07 18:26 | 48.91883 | -122.72280 | 13684 ft | 358 kts | 350° |
| 2026-05-07 18:26 | 48.94255 | -122.72905 | 12622 ft | 334 kts | 350° |
| 2026-05-07 18:27 | 48.96488 | -122.73493 | 11598 ft | 318 kts | 350° |
| 2026-05-07 18:27 | 48.98596 | -122.74067 | 10476 ft | 307 kts | 347° |
| 2026-05-07 18:27 | 49.00610 | -122.75066 | 9322 ft | 299 kts | 347° |
| 2026-05-07 18:27 | 49.02620 | -122.75105 | 8507 ft | 285 kts | 15° |
| 2026-05-07 18:28 | 49.04320 | -122.73741 | 7739 ft | 274 kts | 44° |
| 2026-05-07 18:28 | 49.05586 | -122.71609 | 6994 ft | 271 kts | 44° |
| 2026-05-07 18:28 | 49.07229 | -122.70230 | 6231 ft | 273 kts | 14° |
| 2026-05-07 18:28 | 49.09110 | -122.70291 | 5453 ft | 275 kts | 344° |
| 2026-05-07 18:29 | 49.10707 | -122.71743 | 4687 ft | 264 kts | 316° |
| 2026-05-07 18:29 | 49.12075 | -122.73560 | 3904 ft | 260 kts | 324° |
| 2026-05-07 18:29 | 49.13392 | -122.75410 | 3394 ft | 258 kts | 303° |
| 2026-05-07 18:29 | 49.14032 | -122.77986 | 3306 ft | 263 kts | 280° |
| 2026-05-07 18:30 | 49.14281 | -122.80753 | 3253 ft | 262 kts | 279° |
| 2026-05-07 18:30 | 49.14630 | -122.83478 | 3216 ft | 261 kts | 282° |
| 2026-05-07 18:30 | 49.14975 | -122.86124 | 3170 ft | 239 kts | 280° |
| 2026-05-07 18:30 | 49.15233 | -122.88492 | 3151 ft | 220 kts | 280° |
| 2026-05-07 18:31 | 49.15516 | -122.90848 | 3200 ft | 228 kts | 281° |
| 2026-05-07 18:31 | 49.15804 | -122.93257 | 3016 ft | 232 kts | 280° |
| 2026-05-07 18:31 | 49.16091 | -122.95726 | 2749 ft | 237 kts | 280° |
| 2026-05-07 18:31 | 49.16378 | -122.98167 | 2459 ft | 230 kts | 280° |
| 2026-05-07 18:32 | 49.16655 | -123.00524 | 2147 ft | 217 kts | 280° |
| 2026-05-07 18:32 | 49.16903 | -123.02643 | 1933 ft | 206 kts | 280° |
| 2026-05-07 18:32 | 49.17152 | -123.04776 | 1619 ft | 202 kts | 280° |
| 2026-05-07 18:32 | 49.17389 | -123.06808 | 1287 ft | 183 kts | 280° |
| 2026-05-07 18:33 | 49.17598 | -123.08616 | 1025 ft | 163 kts | 280° |
| 2026-05-07 18:33 | 49.17788 | -123.10236 | 814 ft | 146 kts | 280° |
| 2026-05-07 18:33 | 49.17950 | -123.11630 | 656 ft | 125 kts | 280° |
| 2026-05-07 18:33 | 49.18097 | -123.12906 | 459 ft | 118 kts | 280° |
| 2026-05-07 18:34 | 49.18225 | -123.14115 | 261 ft | 112 kts | 281° |
| 2026-05-07 18:34 | 49.18364 | -123.15279 | 122 ft | 111 kts | 281° |
| 2026-05-07 18:34 | 49.18503 | -123.16446 | 28 ft | 108 kts | 281° |
| 2026-05-07 18:34 | 49.18617 | -123.17380 | 15 ft | 52 kts | 275° |
| 2026-05-07 18:35 | 49.18698 | -123.17669 | 19 ft | 26 kts | 316° |
| 2026-05-07 18:35 | 49.18809 | -123.17725 | 14 ft | 15 kts | 7° |
| 2026-05-07 18:35 | 49.18853 | -123.17726 | 14 ft | 1 kts | 340° |
| 2026-05-07 18:35 | 49.18867 | -123.17747 | 16 ft | 6 kts | 303° |
| 2026-05-07 18:36 | 49.18886 | -123.17860 | 14 ft | 16 kts | 280° |
| 2026-05-07 18:36 | 49.18910 | -123.18064 | 15 ft | 21 kts | 279° |
| 2026-05-07 18:36 | 49.18939 | -123.18297 | 14 ft | 23 kts | 281° |
| 2026-05-07 18:36 | 49.19017 | -123.18512 | 14 ft | 25 kts | 321° |
| 2026-05-07 18:37 | 49.19083 | -123.18597 | 16 ft | 0 kts | 322° |
| 2026-05-07 18:38 | 49.19083 | -123.18598 | 14 ft | 0 kts | 322° |
| 2026-05-07 18:38 | 49.19116 | -123.18636 | 16 ft | 12 kts | 322° |
| 2026-05-07 18:38 | 49.19212 | -123.18723 | 15 ft | 18 kts | 351° |
| 2026-05-07 18:39 | 49.19349 | -123.18703 | 15 ft | 22 kts | 5° |
| 2026-05-07 18:39 | 49.19503 | -123.18726 | 17 ft | 23 kts | 5° |
| 2026-05-07 18:39 | 49.19663 | -123.18680 | 17 ft | 25 kts | 9° |
| 2026-05-07 18:39 | 49.19773 | -123.18588 | 18 ft | 1 kts | 16° |
| 2026-05-07 18:40 | 49.19806 | -123.18578 | 18 ft | 14 kts | 11° |
| 2026-05-07 18:40 | 49.19918 | -123.18547 | 17 ft | 17 kts | 9° |
| 2026-05-07 18:40 | 49.20035 | -123.18495 | 19 ft | 15 kts | 42° |
| 2026-05-07 18:40 | 49.20033 | -123.18344 | 17 ft | 23 kts | 96° |
| 2026-05-07 18:41 | 49.19983 | -123.17934 | 18 ft | 43 kts | 101° |
| 2026-05-07 18:41 | 49.19917 | -123.17539 | 16 ft | 38 kts | 92° |
| 2026-05-07 18:41 | 49.19862 | -123.17197 | 16 ft | 27 kts | 162° |
| 2026-05-07 18:41 | 49.19651 | -123.17239 | 17 ft | 26 kts | 235° |
| 2026-05-07 18:42 | 49.19660 | -123.17341 | 16 ft | 5 kts | 254° |
| 2026-05-07 18:42 | 49.19622 | -123.17381 | 18 ft | 8 kts | 179° |
| 2026-05-07 18:42 | 49.19605 | -123.17378 | 15 ft | 0 kts | 172° |